Time;durP1;ratioP1;P1;durP2;ratioP2;P2;SDS_P1;SDS_P2;PMS_P1;PMS_P2;Temp;Humidity;BMP_temperature;BMP_pressure;BME280_temperature;BME280_humidity;BME280_pressure;Samples;Min_cycle;Max_cycle;Signal;HPM_P1;HPM_P2
2021/12/14 00:02:25;;;;;;;;;22.25;16.75;;;;;;;;4961467;28;45814;-72
2021/12/14 00:04:51;;;;;;;;;21.25;18.50;;;;;;;;4960456;28;45474;-72
2021/12/14 00:07:16;;;;;;;;;20.75;15.50;;;;;;;;4963507;28;46348;-72
2021/12/14 00:09:43;;;;;;;;;20.50;16.50;;;;;;;;4955130;28;45422;-71
2021/12/14 00:17:10;;;;;;;;;25.00;14.25;;;;;;;;4955098;28;45921;-72
2021/12/14 00:19:37;;;;;;;;;19.75;15.75;;;;;;;;4957286;28;45452;-72
2021/12/14 00:22:17;;;;;;;;;25.00;16.50;;;;;;;;4955332;28;45444;-72
2021/12/14 00:24:42;;;;;;;;;20.25;16.25;;;;;;;;4955261;28;45566;-73
2021/12/14 00:27:07;;;;;;;;;19.00;13.33;;;;;;;;4955673;28;46552;-72
2021/12/14 00:29:36;;;;;;;;;21.25;14.75;;;;;;;;4955511;28;45399;-72
2021/12/14 00:32:03;;;;;;;;;20.00;15.00;;;;;;;;4956933;28;45471;-72
2021/12/14 00:34:41;;;;;;;;;14.75;12.00;;;;;;;;4957368;28;45607;-72
2021/12/14 00:37:08;;;;;;;;;22.25;14.50;;;;;;;;4957944;28;45806;-72
2021/12/14 00:39:33;;;;;;;;;17.00;12.50;;;;;;;;4969808;28;46000;-73
2021/12/14 00:41:59;;;;;;;;;18.33;14.33;;;;;;;;4963435;28;46874;-72
2021/12/14 00:44:24;;;;;;;;;19.75;13.75;;;;;;;;4952459;28;45451;-72
2021/12/14 00:46:50;;;;;;;;;14.33;11.67;;;;;;;;4955735;28;45475;-72
2021/12/14 00:49:15;;;;;;;;;19.25;16.00;;;;;;;;4954886;28;45420;-72
2021/12/14 00:51:41;;;;;;;;;13.25;12.25;;;;;;;;4954774;28;45472;-71
2021/12/14 00:54:08;;;;;;;;;21.33;16.00;;;;;;;;4955507;28;45373;-72
2021/12/14 00:56:34;;;;;;;;;25.25;15.25;;;;;;;;4954656;28;47431;-72
2021/12/14 00:59:04;;;;;;;;;19.75;14.50;;;;;;;;4955276;28;45524;-73
2021/12/14 01:01:31;;;;;;;;;23.50;15.00;;;;;;;;4962109;28;45286;-73
2021/12/14 01:03:57;;;;;;;;;19.25;15.50;;;;;;;;4963676;28;45282;-72
2021/12/14 01:06:25;;;;;;;;;23.00;15.00;;;;;;;;4955050;28;45350;-71
2021/12/14 01:08:51;;;;;;;;;22.25;18.50;;;;;;;;4958269;28;45207;-72
2021/12/14 01:11:20;;;;;;;;;19.75;15.75;;;;;;;;4959883;28;46911;-72
2021/12/14 01:13:54;;;;;;;;;22.50;18.75;;;;;;;;4965282;28;45638;-72
2021/12/14 01:16:34;;;;;;;;;21.75;16.25;;;;;;;;4960087;28;46502;-73
2021/12/14 01:19:13;;;;;;;;;23.75;15.00;;;;;;;;4944478;28;45981;-72
2021/12/14 01:25:16;;;;;;;;;24.75;16.25;;;;;;;;4973197;28;45386;-72
2021/12/14 01:27:25;;;;;;;;;27.25;19.00;;;;;;;;4972445;28;45291;-72
2021/12/14 01:29:53;;;;;;;;;19.75;14.75;;;;;;;;4974120;28;45818;-72
2021/12/14 01:32:21;;;;;;;;;22.00;18.00;;;;;;;;4971321;28;45318;-72
2021/12/14 01:34:46;;;;;;;;;27.25;22.25;;;;;;;;4974945;28;45518;-72
2021/12/14 01:37:14;;;;;;;;;23.50;16.25;;;;;;;;4973759;28;45671;-72
2021/12/14 01:39:49;;;;;;;;;22.75;20.50;;;;;;;;4974939;28;45854;-72
2021/12/14 01:42:15;;;;;;;;;32.25;17.50;;;;;;;;4974228;28;45512;-72
2021/12/14 01:44:51;;;;;;;;;18.50;15.25;;;;;;;;4974641;28;45306;-72
2021/12/14 01:47:21;;;;;;;;;23.25;16.50;;;;;;;;4974359;28;45613;-72
2021/12/14 01:49:47;;;;;;;;;22.75;16.75;;;;;;;;4974256;28;45954;-72
2021/12/14 01:52:15;;;;;;;;;18.00;12.50;;;;;;;;4974679;28;45626;-72
2021/12/14 01:54:43;;;;;;;;;25.25;20.75;;;;;;;;4974572;28;45921;-72
2021/12/14 01:57:12;;;;;;;;;20.00;15.75;;;;;;;;4974884;28;46802;-72
2021/12/14 01:59:39;;;;;;;;;21.25;17.25;;;;;;;;4974241;28;45875;-72
2021/12/14 02:02:29;;;;;;;;;22.25;15.75;;;;;;;;4962751;28;45504;-72
2021/12/14 02:04:55;;;;;;;;;17.50;12.00;;;;;;;;4957365;28;45360;-72
2021/12/14 02:07:22;;;;;;;;;28.75;16.00;;;;;;;;4956966;28;45375;-73
2021/12/14 02:09:53;;;;;;;;;16.50;13.25;;;;;;;;4957287;28;45935;-72
2021/12/14 02:12:21;;;;;;;;;27.75;14.00;;;;;;;;4964256;28;45373;-72
2021/12/14 02:14:46;;;;;;;;;23.50;15.50;;;;;;;;4965051;28;45477;-72
2021/12/14 02:17:13;;;;;;;;;17.75;11.75;;;;;;;;4960833;28;45731;-72
2021/12/14 02:19:39;;;;;;;;;20.75;16.50;;;;;;;;4948834;28;45497;-72
2021/12/14 02:22:06;;;;;;;;;21.25;12.25;;;;;;;;4962322;28;45506;-73
2021/12/14 02:24:31;;;;;;;;;20.75;17.75;;;;;;;;4956968;28;45409;-72
2021/12/14 02:26:57;;;;;;;;;22.75;17.00;;;;;;;;4956153;28;45563;-72
2021/12/14 02:29:28;;;;;;;;;26.25;18.00;;;;;;;;4959646;28;45369;-72
2021/12/14 02:32:03;;;;;;;;;21.75;15.50;;;;;;;;4960057;28;45616;-72
2021/12/14 02:34:28;;;;;;;;;24.75;18.00;;;;;;;;4952333;28;45483;-72
2021/12/14 02:36:53;;;;;;;;;25.25;22.00;;;;;;;;4964271;28;45488;-73
2021/12/14 02:39:35;;;;;;;;;28.50;18.50;;;;;;;;4961925;28;45385;-72
2021/12/14 02:42:01;;;;;;;;;21.50;15.25;;;;;;;;4955614;28;45522;-73
2021/12/14 02:44:26;;;;;;;;;23.00;16.00;;;;;;;;4956533;28;45460;-73
2021/12/14 02:46:56;;;;;;;;;25.00;16.67;;;;;;;;4956410;28;45672;-72
2021/12/14 02:49:23;;;;;;;;;19.00;15.00;;;;;;;;4960484;28;45934;-72
2021/12/14 02:51:53;;;;;;;;;20.25;15.00;;;;;;;;4956613;28;45491;-72
2021/12/14 02:54:22;;;;;;;;;21.00;14.25;;;;;;;;4956744;28;45380;-72
2021/12/14 02:56:49;;;;;;;;;24.75;17.00;;;;;;;;4967657;28;45522;-72
2021/12/14 02:59:16;;;;;;;;;21.50;15.25;;;;;;;;4962238;28;45443;-72
2021/12/14 03:01:42;;;;;;;;;18.00;14.75;;;;;;;;4958358;28;45459;-71
2021/12/14 03:04:09;;;;;;;;;15.75;11.50;;;;;;;;4956031;28;45467;-72
2021/12/14 03:06:45;;;;;;;;;24.50;15.75;;;;;;;;4954953;28;46386;-73
2021/12/14 03:09:31;;;;;;;;;17.25;16.75;;;;;;;;4960554;28;45453;-72
2021/12/14 03:11:57;;;;;;;;;26.25;17.50;;;;;;;;4954339;28;45439;-72
2021/12/14 03:14:23;;;;;;;;;20.75;18.75;;;;;;;;4956141;28;45356;-72
2021/12/14 03:16:48;;;;;;;;;22.00;16.25;;;;;;;;4960251;28;45459;-73
2021/12/14 03:19:13;;;;;;;;;20.25;17.00;;;;;;;;4956691;28;45469;-72
2021/12/14 03:21:41;;;;;;;;;20.50;16.75;;;;;;;;4962526;28;45472;-73
2021/12/14 03:24:08;;;;;;;;;24.25;20.25;;;;;;;;4956506;28;45435;-72
2021/12/14 03:26:35;;;;;;;;;20.50;14.75;;;;;;;;4956328;28;46359;-72
2021/12/14 03:29:03;;;;;;;;;24.50;15.25;;;;;;;;4956065;28;45291;-72
2021/12/14 03:31:34;;;;;;;;;20.25;17.00;;;;;;;;4955888;28;45357;-72
2021/12/14 03:34:02;;;;;;;;;18.00;18.00;;;;;;;;4956522;28;45498;-72
2021/12/14 03:36:32;;;;;;;;;21.25;19.00;;;;;;;;4956421;28;45743;-72
2021/12/14 03:39:06;;;;;;;;;16.75;15.00;;;;;;;;4956593;28;46641;-72
2021/12/14 03:41:36;;;;;;;;;22.50;17.25;;;;;;;;4955947;28;45496;-73
2021/12/14 03:44:10;;;;;;;;;25.50;17.75;;;;;;;;4956763;28;45512;-72
2021/12/14 03:46:41;;;;;;;;;21.25;16.75;;;;;;;;4955658;28;46155;-73
2021/12/14 03:49:07;;;;;;;;;26.50;21.25;;;;;;;;4955602;28;45436;-72
2021/12/14 03:51:32;;;;;;;;;29.75;22.25;;;;;;;;4955832;28;45571;-73
2021/12/14 03:53:58;;;;;;;;;28.25;20.25;;;;;;;;4956389;28;45234;-72
2021/12/14 03:56:23;;;;;;;;;28.33;21.00;;;;;;;;4955944;28;45680;-73
2021/12/14 03:58:49;;;;;;;;;23.75;17.50;;;;;;;;4955447;28;45254;-73
2021/12/14 04:01:17;;;;;;;;;27.50;20.25;;;;;;;;4959204;28;45641;-73
2021/12/14 04:03:44;;;;;;;;;29.75;21.00;;;;;;;;4955510;28;45354;-72
2021/12/14 04:06:09;;;;;;;;;25.00;20.25;;;;;;;;4955899;28;46572;-73
2021/12/14 04:08:35;;;;;;;;;31.25;21.00;;;;;;;;4955281;28;45369;-73
2021/12/14 04:11:02;;;;;;;;;31.25;23.00;;;;;;;;4964418;28;45506;-73
2021/12/14 04:13:29;;;;;;;;;31.75;22.50;;;;;;;;4960119;28;45517;-73
2021/12/14 04:15:55;;;;;;;;;28.50;19.75;;;;;;;;4954999;28;45528;-72
2021/12/14 04:18:21;;;;;;;;;27.50;24.00;;;;;;;;4955971;28;45250;-73
2021/12/14 04:20:47;;;;;;;;;37.50;24.00;;;;;;;;4955601;28;45438;-73
2021/12/14 04:23:14;;;;;;;;;30.00;20.25;;;;;;;;4955333;28;45518;-73
2021/12/14 04:25:40;;;;;;;;;29.00;22.75;;;;;;;;4955631;28;46490;-73
2021/12/14 04:28:07;;;;;;;;;24.50;21.75;;;;;;;;4955146;28;45362;-73
2021/12/14 04:30:33;;;;;;;;;28.50;21.50;;;;;;;;4955871;28;45898;-73
2021/12/14 04:33:01;;;;;;;;;26.00;22.25;;;;;;;;4956796;28;45349;-73
2021/12/14 04:35:26;;;;;;;;;29.25;22.25;;;;;;;;4959094;28;46381;-73
2021/12/14 04:37:55;;;;;;;;;37.33;27.00;;;;;;;;4955080;28;45566;-73
2021/12/14 04:54:03;;;;;;;;;32.25;24.25;;;;;;;;4957452;28;45455;-73
2021/12/14 04:56:38;;;;;;;;;30.00;26.25;;;;;;;;4957856;28;46524;-72
2021/12/14 04:59:10;;;;;;;;;36.25;25.00;;;;;;;;4948878;28;45930;-72
2021/12/14 05:01:37;;;;;;;;;33.00;24.50;;;;;;;;4951198;28;47772;-72
2021/12/14 05:04:04;;;;;;;;;30.25;25.25;;;;;;;;4961087;28;45475;-73
2021/12/14 05:06:44;;;;;;;;;29.75;25.75;;;;;;;;4958112;28;46709;-72
2021/12/14 05:09:23;;;;;;;;;32.00;26.25;;;;;;;;4959136;28;45307;-73
2021/12/14 05:11:53;;;;;;;;;25.75;24.75;;;;;;;;4957577;28;45510;-72
2021/12/14 05:14:18;;;;;;;;;28.50;22.50;;;;;;;;4957420;28;45631;-72
2021/12/14 05:16:45;;;;;;;;;32.00;21.25;;;;;;;;4972639;28;48430;-72
2021/12/14 05:19:11;;;;;;;;;32.00;24.75;;;;;;;;4957341;28;45791;-72
2021/12/14 05:21:37;;;;;;;;;35.75;26.00;;;;;;;;4957861;28;45588;-72
2021/12/14 05:24:04;;;;;;;;;34.25;25.25;;;;;;;;4958013;28;45506;-72
2021/12/14 05:26:29;;;;;;;;;34.75;24.00;;;;;;;;4957526;28;46168;-72
2021/12/14 05:28:54;;;;;;;;;25.25;20.75;;;;;;;;4957066;28;45401;-72
2021/12/14 05:31:20;;;;;;;;;24.67;20.67;;;;;;;;4957394;28;45396;-72
2021/12/14 05:33:45;;;;;;;;;28.25;21.50;;;;;;;;4957568;28;45504;-71
2021/12/14 05:36:14;;;;;;;;;29.75;22.50;;;;;;;;4957936;28;46089;-72
2021/12/14 05:43:06;;;;;;;;;33.50;24.50;;;;;;;;4959880;28;45494;-72
2021/12/14 05:43:58;;;;;;;;;31.00;24.50;;;;;;;;4955520;28;45568;-72
2021/12/14 05:46:24;;;;;;;;;31.75;22.25;;;;;;;;4961543;28;46730;-72
2021/12/14 05:48:55;;;;;;;;;29.75;23.00;;;;;;;;4957060;28;45563;-72
2021/12/14 05:51:20;;;;;;;;;26.75;21.75;;;;;;;;4957798;28;45539;-72
2021/12/14 05:53:46;;;;;;;;;33.00;22.00;;;;;;;;4957496;28;45471;-72
2021/12/14 05:56:13;;;;;;;;;35.25;25.50;;;;;;;;4956616;28;46307;-72
2021/12/14 05:58:38;;;;;;;;;30.75;23.00;;;;;;;;4956704;28;45887;-72
2021/12/14 06:01:06;;;;;;;;;35.25;26.50;;;;;;;;4956445;28;45719;-71
2021/12/14 06:03:33;;;;;;;;;29.00;21.00;;;;;;;;4957207;28;45397;-72
2021/12/14 06:06:00;;;;;;;;;26.50;17.75;;;;;;;;4955288;28;46621;-72
2021/12/14 06:08:32;;;;;;;;;38.00;25.75;;;;;;;;4956949;28;45970;-72
2021/12/14 06:10:58;;;;;;;;;28.50;22.75;;;;;;;;4956487;28;45472;-72
2021/12/14 06:13:53;;;;;;;;;30.75;20.00;;;;;;;;4956352;28;45419;-72
2021/12/14 06:16:21;;;;;;;;;31.75;24.75;;;;;;;;4955590;28;45792;-72
2021/12/14 06:18:46;;;;;;;;;32.00;24.25;;;;;;;;4950030;28;45478;-72
2021/12/14 06:21:12;;;;;;;;;26.67;22.00;;;;;;;;4957745;28;45318;-72
2021/12/14 06:23:38;;;;;;;;;32.75;25.00;;;;;;;;4956333;28;45656;-72
2021/12/14 06:26:03;;;;;;;;;30.00;20.00;;;;;;;;4956193;28;45909;-72
2021/12/14 06:28:28;;;;;;;;;28.67;21.33;;;;;;;;4956614;28;45470;-72
2021/12/14 06:30:55;;;;;;;;;31.00;24.25;;;;;;;;4957141;28;45298;-72
2021/12/14 06:33:20;;;;;;;;;26.75;23.50;;;;;;;;4956731;28;45328;-72
2021/12/14 06:35:48;;;;;;;;;34.00;22.33;;;;;;;;4956779;28;48788;-71
2021/12/14 06:40:38;;;;;;;;;28.25;26.00;;;;;;;;4956279;28;45341;-71
2021/12/14 06:43:08;;;;;;;;;36.00;23.67;;;;;;;;4969710;28;45515;-70
2021/12/14 06:45:35;;;;;;;;;31.75;25.75;;;;;;;;4955864;28;45688;-71
2021/12/14 06:48:04;;;;;;;;;31.50;23.50;;;;;;;;4955655;28;45322;-70
2021/12/14 06:50:33;;;;;;;;;28.00;25.00;;;;;;;;4954969;28;45447;-70
2021/12/14 06:53:04;;;;;;;;;40.50;27.50;;;;;;;;4955581;28;45382;-70
2021/12/14 06:55:30;;;;;;;;;31.50;27.25;;;;;;;;4955857;28;46902;-70
2021/12/14 06:58:05;;;;;;;;;33.75;27.25;;;;;;;;4956189;28;45580;-70
2021/12/14 07:00:30;;;;;;;;;33.00;24.50;;;;;;;;4955691;28;45352;-70
2021/12/14 07:02:56;;;;;;;;;40.25;27.25;;;;;;;;4957016;28;45407;-70
2021/12/14 07:05:24;;;;;;;;;47.50;26.25;;;;;;;;4954209;28;45573;-71
2021/12/14 07:07:49;;;;;;;;;30.50;25.00;;;;;;;;4956154;28;45651;-70
2021/12/14 07:10:15;;;;;;;;;31.33;28.33;;;;;;;;4955624;28;45268;-68
2021/12/14 07:12:40;;;;;;;;;35.50;27.25;;;;;;;;4955356;28;45660;-72
2021/12/14 07:15:11;;;;;;;;;31.00;23.33;;;;;;;;4956552;28;45484;-70
2021/12/14 07:17:43;;;;;;;;;34.50;24.25;;;;;;;;4956372;28;45453;-70
2021/12/14 07:20:11;;;;;;;;;36.25;26.00;;;;;;;;4956046;28;45364;-70
2021/12/14 07:22:39;;;;;;;;;32.75;25.75;;;;;;;;4955660;28;45267;-70
2021/12/14 07:25:05;;;;;;;;;35.25;26.50;;;;;;;;4956132;28;46193;-70
2021/12/14 07:27:50;;;;;;;;;32.67;26.00;;;;;;;;4956081;28;45483;-70
2021/12/14 07:30:18;;;;;;;;;24.50;21.50;;;;;;;;4949954;28;45362;-70
2021/12/14 07:33:08;;;;;;;;;31.25;27.25;;;;;;;;4957899;28;45440;-70
2021/12/14 07:35:36;;;;;;;;;30.50;21.75;;;;;;;;4956067;28;45372;-70
2021/12/14 07:38:11;;;;;;;;;35.00;27.50;;;;;;;;4955838;28;45723;-70
2021/12/14 07:40:39;;;;;;;;;33.00;26.00;;;;;;;;4955628;28;45406;-70
2021/12/14 07:43:13;;;;;;;;;34.75;25.75;;;;;;;;4956243;28;45754;-70
2021/12/14 07:45:39;;;;;;;;;35.75;24.00;;;;;;;;4955942;28;46622;-70
2021/12/14 07:48:04;;;;;;;;;42.00;33.00;;;;;;;;4956326;28;45292;-70
2021/12/14 07:50:48;;;;;;;;;33.67;21.00;;;;;;;;4955722;28;45516;-70
2021/12/14 07:53:14;;;;;;;;;34.25;26.00;;;;;;;;4955288;28;45486;-70
2021/12/14 07:55:41;;;;;;;;;29.00;27.00;;;;;;;;4953743;28;45488;-70
2021/12/14 07:58:06;;;;;;;;;38.25;26.00;;;;;;;;4955682;28;45309;-70
2021/12/14 08:00:35;;;;;;;;;30.00;24.50;;;;;;;;4955776;28;45723;-70
2021/12/14 08:03:02;;;;;;;;;33.75;27.50;;;;;;;;4956192;28;45689;-70
2021/12/14 08:05:35;;;;;;;;;31.00;23.25;;;;;;;;4955351;28;46393;-70
2021/12/14 08:08:02;;;;;;;;;31.50;23.50;;;;;;;;4955157;28;45895;-70
2021/12/14 08:10:30;;;;;;;;;34.50;26.00;;;;;;;;4955438;28;45663;-70
2021/12/14 08:13:04;;;;;;;;;32.25;20.50;;;;;;;;4955688;28;45520;-70
2021/12/14 08:15:31;;;;;;;;;31.25;21.75;;;;;;;;4955519;28;45597;-70
2021/12/14 08:18:02;;;;;;;;;33.25;22.25;;;;;;;;4957866;28;45956;-70
2021/12/14 08:20:28;;;;;;;;;29.50;25.00;;;;;;;;4959011;28;47585;-70
2021/12/14 08:22:54;;;;;;;;;28.00;19.00;;;;;;;;4958705;28;45437;-70
2021/12/14 08:25:25;;;;;;;;;27.25;22.25;;;;;;;;4958777;28;46816;-70
2021/12/14 08:28:00;;;;;;;;;32.75;20.25;;;;;;;;4943779;28;45277;-70
2021/12/14 08:30:26;;;;;;;;;27.50;20.75;;;;;;;;4959142;28;45380;-70
2021/12/14 08:32:51;;;;;;;;;29.50;21.00;;;;;;;;4973097;28;45512;-70
2021/12/14 08:35:16;;;;;;;;;36.33;25.33;;;;;;;;4958492;28;45734;-70
2021/12/14 08:37:43;;;;;;;;;30.00;20.00;;;;;;;;4958085;28;45882;-70
2021/12/14 08:40:11;;;;;;;;;31.50;26.00;;;;;;;;4961869;28;45507;-70
2021/12/14 08:43:02;;;;;;;;;38.00;25.25;;;;;;;;4972207;28;45297;-70
2021/12/14 08:45:30;;;;;;;;;31.75;22.00;;;;;;;;4955804;28;47210;-70
2021/12/14 08:47:55;;;;;;;;;38.00;27.25;;;;;;;;4958817;28;45942;-70
2021/12/14 08:50:20;;;;;;;;;30.33;24.33;;;;;;;;4960465;28;45409;-70
2021/12/14 08:52:46;;;;;;;;;35.50;28.00;;;;;;;;4957747;28;45740;-70
2021/12/14 08:55:13;;;;;;;;;29.00;24.25;;;;;;;;4969991;28;46315;-70
2021/12/14 08:57:40;;;;;;;;;33.00;25.50;;;;;;;;4958465;28;46298;-70
2021/12/14 09:00:12;;;;;;;;;29.75;23.50;;;;;;;;4970445;28;45349;-70
2021/12/14 09:02:38;;;;;;;;;29.75;25.00;;;;;;;;4960684;28;45525;-70
2021/12/14 09:05:15;;;;;;;;;28.25;20.75;;;;;;;;4959337;28;46363;-70
2021/12/14 09:07:40;;;;;;;;;32.75;26.25;;;;;;;;4957443;28;45822;-70
2021/12/14 09:10:09;;;;;;;;;33.50;25.25;;;;;;;;4960003;28;45424;-70
2021/12/14 09:12:37;;;;;;;;;36.50;22.25;;;;;;;;4957879;28;45432;-70
2021/12/14 09:15:06;;;;;;;;;32.00;18.75;;;;;;;;4958417;28;46507;-70
2021/12/14 09:17:31;;;;;;;;;29.75;24.25;;;;;;;;4957587;28;46741;-70
2021/12/14 09:20:03;;;;;;;;;33.50;22.50;;;;;;;;4957790;28;45322;-70
2021/12/14 09:22:33;;;;;;;;;37.00;27.00;;;;;;;;4957880;28;45382;-70
2021/12/14 09:24:59;;;;;;;;;33.50;25.50;;;;;;;;4957923;28;45715;-70
2021/12/14 09:27:26;;;;;;;;;37.50;30.00;;;;;;;;4957751;28;45306;-70
2021/12/14 09:29:53;;;;;;;;;41.75;31.75;;;;;;;;4957121;28;45362;-70
2021/12/14 09:32:24;;;;;;;;;31.50;21.00;;;;;;;;4964493;28;45420;-70
2021/12/14 09:34:49;;;;;;;;;38.50;26.75;;;;;;;;4961627;28;46352;-70
2021/12/14 09:37:16;;;;;;;;;32.67;21.00;;;;;;;;4957798;28;45474;-70
2021/12/14 09:39:50;;;;;;;;;31.00;21.50;;;;;;;;4958368;28;45524;-70
2021/12/14 09:42:18;;;;;;;;;33.00;23.00;;;;;;;;4954472;28;45434;-70
2021/12/14 09:44:43;;;;;;;;;39.25;28.75;;;;;;;;4957395;28;45620;-70
2021/12/14 09:47:12;;;;;;;;;37.75;29.50;;;;;;;;4957362;28;45499;-70
2021/12/14 09:49:38;;;;;;;;;31.25;26.25;;;;;;;;4957328;28;45741;-70
2021/12/14 09:52:09;;;;;;;;;33.50;23.00;;;;;;;;4957559;28;45333;-70
2021/12/14 09:54:35;;;;;;;;;32.00;23.75;;;;;;;;4957426;28;46435;-70
2021/12/14 09:57:03;;;;;;;;;33.00;25.00;;;;;;;;4958072;28;45502;-70
2021/12/14 09:59:29;;;;;;;;;29.75;20.25;;;;;;;;4957219;28;45393;-70
2021/12/14 10:02:00;;;;;;;;;40.00;27.50;;;;;;;;4957228;28;45293;-70
2021/12/14 10:04:30;;;;;;;;;36.25;26.00;;;;;;;;4956400;28;46780;-70
2021/12/14 10:06:57;;;;;;;;;29.75;25.75;;;;;;;;4957545;28;45546;-70
2021/12/14 10:09:25;;;;;;;;;32.25;28.25;;;;;;;;4957701;28;45349;-70
2021/12/14 10:12:15;;;;;;;;;32.75;26.00;;;;;;;;4956246;28;45523;-70
2021/12/14 10:14:41;;;;;;;;;35.50;25.25;;;;;;;;4956886;28;46293;-70
2021/12/14 10:17:08;;;;;;;;;32.75;24.50;;;;;;;;4957523;28;45531;-70
2021/12/14 10:19:34;;;;;;;;;36.25;31.50;;;;;;;;4956848;28;45257;-70
2021/12/14 10:22:08;;;;;;;;;29.75;21.75;;;;;;;;4957187;28;47872;-70
2021/12/14 10:24:34;;;;;;;;;34.25;26.00;;;;;;;;4956842;28;45472;-70
2021/12/14 10:27:03;;;;;;;;;34.25;24.25;;;;;;;;4957683;28;45392;-70
2021/12/14 10:29:29;;;;;;;;;34.00;24.25;;;;;;;;4957389;28;45487;-70
2021/12/14 10:32:00;;;;;;;;;41.25;33.25;;;;;;;;4955556;28;45490;-70
2021/12/14 10:34:26;;;;;;;;;50.00;26.75;;;;;;;;4956607;28;46441;-70
2021/12/14 10:37:04;;;;;;;;;37.75;28.00;;;;;;;;4956844;28;45392;-70
2021/12/14 10:44:47;;;;;;;;;37.00;26.50;;;;;;;;4956828;28;45780;-70
2021/12/14 10:47:13;;;;;;;;;32.75;27.00;;;;;;;;4956203;28;45527;-70
2021/12/14 10:49:39;;;;;;;;;36.75;27.00;;;;;;;;4956738;28;45479;-70
2021/12/14 10:52:09;;;;;;;;;35.25;24.50;;;;;;;;4956639;28;45385;-70
2021/12/14 10:54:34;;;;;;;;;36.50;28.75;;;;;;;;4956544;28;45429;-70
2021/12/14 10:57:03;;;;;;;;;38.00;31.75;;;;;;;;4957146;28;45420;-70
2021/12/14 10:59:31;;;;;;;;;42.25;30.50;;;;;;;;4956519;28;45483;-70
2021/12/14 11:01:57;;;;;;;;;38.00;27.25;;;;;;;;4955907;28;45495;-70
2021/12/14 11:04:26;;;;;;;;;32.50;24.75;;;;;;;;4956099;28;45449;-70
2021/12/14 11:06:52;;;;;;;;;35.00;28.75;;;;;;;;4955804;28;45636;-70
2021/12/14 11:09:42;;;;;;;;;33.75;24.00;;;;;;;;4956987;28;45409;-70
2021/12/14 11:12:18;;;;;;;;;33.75;27.75;;;;;;;;4956032;28;45495;-70
2021/12/14 11:14:44;;;;;;;;;45.25;26.00;;;;;;;;4956035;28;45813;-70
2021/12/14 11:19:56;;;;;;;;;37.00;26.50;;;;;;;;4956249;28;45401;-70
2021/12/14 11:22:28;;;;;;;;;38.25;31.00;;;;;;;;4956322;28;45501;-70
2021/12/14 11:24:55;;;;;;;;;38.25;34.00;;;;;;;;4956529;28;45325;-70
2021/12/14 11:27:22;;;;;;;;;39.00;33.00;;;;;;;;4956415;28;45283;-70
2021/12/14 11:30:10;;;;;;;;;43.25;28.75;;;;;;;;4956353;28;45450;-70
2021/12/14 11:32:40;;;;;;;;;43.50;35.25;;;;;;;;4960152;28;45361;-70
2021/12/14 11:35:27;;;;;;;;;37.75;29.25;;;;;;;;4955405;28;46295;-70
2021/12/14 11:37:55;;;;;;;;;30.75;26.50;;;;;;;;4948953;28;45946;-70
2021/12/14 11:40:23;;;;;;;;;40.75;30.25;;;;;;;;4955846;28;45568;-70
2021/12/14 11:42:49;;;;;;;;;44.75;31.50;;;;;;;;4941020;28;45307;-70
2021/12/14 11:45:16;;;;;;;;;39.50;31.50;;;;;;;;4955954;28;46109;-70
2021/12/14 11:48:08;;;;;;;;;48.75;31.75;;;;;;;;4955752;28;45807;-70
2021/12/14 11:50:35;;;;;;;;;40.25;30.75;;;;;;;;4957218;28;45425;-70
2021/12/14 11:53:03;;;;;;;;;32.00;27.75;;;;;;;;4956274;28;45298;-70
2021/12/14 11:55:40;;;;;;;;;45.25;30.75;;;;;;;;4955492;28;46370;-70
2021/12/14 11:58:09;;;;;;;;;36.00;34.50;;;;;;;;4955588;28;45495;-70
2021/12/14 12:00:37;;;;;;;;;36.75;30.00;;;;;;;;4955458;28;45203;-70
2021/12/14 12:03:17;;;;;;;;;39.25;27.00;;;;;;;;4956213;28;45499;-70
2021/12/14 12:05:57;;;;;;;;;43.50;29.75;;;;;;;;4956419;28;46427;-70
2021/12/14 12:11:08;;;;;;;;;46.00;33.25;;;;;;;;4955045;28;45511;-70
2021/12/14 12:13:37;;;;;;;;;45.00;36.33;;;;;;;;4955345;28;45406;-70
2021/12/14 12:16:11;;;;;;;;;38.25;35.25;;;;;;;;4954935;28;47220;-70
2021/12/14 12:18:37;;;;;;;;;39.50;33.00;;;;;;;;4955279;28;46015;-70
2021/12/14 12:21:02;;;;;;;;;41.00;33.67;;;;;;;;4956166;28;45388;-70
2021/12/14 12:23:29;;;;;;;;;40.25;32.50;;;;;;;;4955232;28;45430;-70
2021/12/14 12:26:00;;;;;;;;;44.00;35.50;;;;;;;;4955226;28;46490;-70
2021/12/14 12:28:34;;;;;;;;;47.25;35.25;;;;;;;;4954992;28;45557;-70
2021/12/14 12:31:06;;;;;;;;;41.00;32.00;;;;;;;;4955210;28;45372;-70
2021/12/14 12:33:31;;;;;;;;;50.50;34.25;;;;;;;;4955544;28;45266;-71
2021/12/14 12:36:03;;;;;;;;;40.33;29.67;;;;;;;;4955075;28;46558;-70
2021/12/14 12:38:31;;;;;;;;;43.00;37.00;;;;;;;;4955132;28;45222;-70
2021/12/14 12:41:09;;;;;;;;;46.25;33.00;;;;;;;;4970247;28;47847;-70
2021/12/14 12:43:41;;;;;;;;;50.25;39.00;;;;;;;;4954632;28;45397;-70
2021/12/14 12:46:11;;;;;;;;;41.00;36.50;;;;;;;;4954755;28;47196;-70
2021/12/14 12:48:41;;;;;;;;;47.75;34.75;;;;;;;;4955483;28;46122;-70
2021/12/14 12:51:06;;;;;;;;;45.00;37.25;;;;;;;;4955779;28;45413;-70
2021/12/14 12:53:31;;;;;;;;;50.33;38.00;;;;;;;;4954926;28;45539;-70
2021/12/14 12:56:08;;;;;;;;;45.00;36.67;;;;;;;;4954569;28;45583;-70
2021/12/14 12:58:33;;;;;;;;;48.50;34.75;;;;;;;;4954449;28;45427;-70
2021/12/14 13:01:00;;;;;;;;;45.25;35.00;;;;;;;;4955279;28;45580;-70
2021/12/14 13:03:28;;;;;;;;;49.50;36.00;;;;;;;;4956288;28;45548;-70
2021/12/14 13:05:53;;;;;;;;;44.00;34.75;;;;;;;;4956539;28;46332;-70
2021/12/14 13:08:31;;;;;;;;;51.75;39.00;;;;;;;;4958062;28;45436;-70
2021/12/14 13:11:25;;;;;;;;;45.50;35.50;;;;;;;;4956831;28;45555;-70
2021/12/14 13:13:56;;;;;;;;;41.50;34.00;;;;;;;;4965245;28;45400;-70
2021/12/14 13:16:23;;;;;;;;;39.75;31.50;;;;;;;;4958087;28;46215;-70
2021/12/14 13:19:03;;;;;;;;;38.25;31.25;;;;;;;;4942773;28;45936;-70
2021/12/14 13:21:45;;;;;;;;;49.75;37.50;;;;;;;;4955486;28;45336;-70
2021/12/14 13:24:18;;;;;;;;;51.50;36.00;;;;;;;;4957950;28;45636;-70
2021/12/14 13:26:50;;;;;;;;;53.75;36.25;;;;;;;;4957384;28;45543;-70
2021/12/14 13:29:18;;;;;;;;;45.00;31.75;;;;;;;;4973003;28;45451;-70
2021/12/14 13:31:45;;;;;;;;;45.50;34.75;;;;;;;;4957712;28;45466;-70
2021/12/14 13:34:13;;;;;;;;;45.50;35.25;;;;;;;;4957465;28;45572;-70
2021/12/14 13:36:39;;;;;;;;;51.50;37.50;;;;;;;;4957360;28;46429;-70
2021/12/14 13:39:06;;;;;;;;;59.75;39.25;;;;;;;;4958239;28;45916;-70
2021/12/14 13:41:40;;;;;;;;;54.00;37.25;;;;;;;;4957196;28;45338;-71
2021/12/14 13:44:06;;;;;;;;;53.25;36.00;;;;;;;;4957470;28;45540;-70
2021/12/14 13:46:31;;;;;;;;;48.00;37.00;;;;;;;;4957462;28;46433;-70
2021/12/14 13:48:57;;;;;;;;;47.50;36.50;;;;;;;;4956817;28;45708;-71
2021/12/14 13:51:26;;;;;;;;;49.25;39.25;;;;;;;;4953693;28;45686;-72
2021/12/14 13:53:55;;;;;;;;;48.25;36.50;;;;;;;;4956663;28;45511;-71
2021/12/14 13:56:27;;;;;;;;;47.75;36.75;;;;;;;;4958847;28;47404;-70
2021/12/14 13:58:53;;;;;;;;;47.75;36.50;;;;;;;;4957397;28;46361;-71
2021/12/14 14:01:24;;;;;;;;;44.75;34.75;;;;;;;;4957388;28;45496;-71
2021/12/14 14:03:51;;;;;;;;;43.75;35.50;;;;;;;;4956919;28;45249;-70
2021/12/14 14:06:19;;;;;;;;;48.25;37.00;;;;;;;;4954931;28;46598;-70
2021/12/14 14:08:47;;;;;;;;;50.50;35.50;;;;;;;;4949704;28;46077;-70
2021/12/14 14:11:23;;;;;;;;;45.75;35.00;;;;;;;;4948787;28;45568;-70
2021/12/14 14:13:50;;;;;;;;;47.75;35.25;;;;;;;;4953803;28;45689;-70
2021/12/14 14:16:15;;;;;;;;;53.00;38.00;;;;;;;;4950650;28;46677;-70
2021/12/14 14:18:43;;;;;;;;;51.00;35.50;;;;;;;;4953028;28;45535;-70
2021/12/14 14:21:10;;;;;;;;;52.75;37.50;;;;;;;;4939812;28;45396;-70
2021/12/14 14:23:44;;;;;;;;;50.25;36.50;;;;;;;;4948526;28;45579;-70
2021/12/14 14:26:14;;;;;;;;;44.00;36.00;;;;;;;;4949494;28;46089;-70
2021/12/14 14:28:47;;;;;;;;;46.00;36.00;;;;;;;;4949137;28;45931;-70
2021/12/14 14:31:14;;;;;;;;;46.50;34.25;;;;;;;;4946910;28;45783;-71
2021/12/14 14:33:42;;;;;;;;;43.75;32.00;;;;;;;;4955588;28;45356;-71
2021/12/14 14:36:09;;;;;;;;;44.50;36.00;;;;;;;;4949790;28;47081;-70
2021/12/14 14:38:40;;;;;;;;;41.75;34.50;;;;;;;;4953445;28;45430;-71
2021/12/14 14:41:08;;;;;;;;;43.25;35.25;;;;;;;;4949045;28;45521;-70
2021/12/14 14:43:52;;;;;;;;;44.75;36.25;;;;;;;;4953673;28;45595;-70
2021/12/14 14:46:37;;;;;;;;;45.25;33.50;;;;;;;;4950067;28;45389;-71
2021/12/14 14:49:04;;;;;;;;;49.50;37.00;;;;;;;;4941708;28;45502;-70
2021/12/14 14:51:46;;;;;;;;;48.50;34.25;;;;;;;;4951324;28;45457;-71
2021/12/14 14:54:30;;;;;;;;;46.00;33.75;;;;;;;;4953594;28;45398;-70
2021/12/14 14:56:55;;;;;;;;;45.00;36.25;;;;;;;;4949368;28;46580;-70
2021/12/14 14:59:20;;;;;;;;;52.25;38.25;;;;;;;;4949245;28;45525;-71
2021/12/14 15:01:46;;;;;;;;;50.50;36.50;;;;;;;;4951493;28;45838;-70
2021/12/14 15:04:11;;;;;;;;;55.50;39.00;;;;;;;;4950700;28;45536;-70
2021/12/14 15:06:39;;;;;;;;;44.00;35.25;;;;;;;;4951262;28;46575;-70